< < Back
Terminal Aerodrome Forecast


Current Version              Previous Versions:   1  2  3  4  5  6  7  8  9  

Terminal Aerodrome Forecast

886
FTUS42 KFFC 242202 AAA
TAFFTY
TAF AMD
KFTY 242202Z 2422/2518 36004KT P6SM FEW070
     FM250000 00000KT P6SM FEW250
     FM251500 09003KT P6SM FEW035=



Latest METAR

821
SAUS70 KWBC 250300 RRH
MTRFTY
METAR KFTY 250253Z 00000KT 10SM CLR 22/19 A3006 RMK AO2 SLP168 T02220194
51009


USA.gov is the U.S. government's official web portal to all federal, state and local government web resources and services.